sensor_id;sensor_type;location;lat;lon;timestamp;P1;durP1;ratioP1;P2;durP2;ratioP2
70148;SDS011;57514;52.164;5.282;2023-07-29T00:01:58;4.13;;;1.73;;
70148;SDS011;57514;52.164;5.282;2023-07-29T00:04:26;4.38;;;1.60;;
70148;SDS011;57514;52.164;5.282;2023-07-29T00:06:53;5.38;;;2.17;;
70148;SDS011;57514;52.164;5.282;2023-07-29T00:09:20;6.43;;;1.45;;
70148;SDS011;57514;52.164;5.282;2023-07-29T00:11:47;5.22;;;1.60;;
70148;SDS011;57514;52.164;5.282;2023-07-29T00:14:14;4.35;;;1.60;;
70148;SDS011;57514;52.164;5.282;2023-07-29T00:16:42;3.45;;;1.63;;
70148;SDS011;57514;52.164;5.282;2023-07-29T00:19:09;4.40;;;1.40;;
70148;SDS011;57514;52.164;5.282;2023-07-29T00:21:36;3.20;;;1.60;;
70148;SDS011;57514;52.164;5.282;2023-07-29T00:24:03;3.10;;;1.50;;
70148;SDS011;57514;52.164;5.282;2023-07-29T00:26:31;4.82;;;1.63;;
70148;SDS011;57514;52.164;5.282;2023-07-29T00:28:58;4.63;;;1.50;;
70148;SDS011;57514;52.164;5.282;2023-07-29T00:31:26;4.28;;;1.70;;
70148;SDS011;57514;52.164;5.282;2023-07-29T00:33:56;4.25;;;1.55;;
70148;SDS011;57514;52.164;5.282;2023-07-29T00:36:24;3.90;;;1.42;;
70148;SDS011;57514;52.164;5.282;2023-07-29T00:38:51;6.93;;;1.80;;
70148;SDS011;57514;52.164;5.282;2023-07-29T00:41:19;4.40;;;1.92;;
70148;SDS011;57514;52.164;5.282;2023-07-29T00:43:48;2.83;;;1.45;;
70148;SDS011;57514;52.164;5.282;2023-07-29T00:46:15;4.90;;;2.20;;
70148;SDS011;57514;52.164;5.282;2023-07-29T00:48:43;4.00;;;1.58;;
70148;SDS011;57514;52.164;5.282;2023-07-29T00:51:11;6.32;;;1.77;;
70148;SDS011;57514;52.164;5.282;2023-07-29T00:53:38;6.10;;;1.60;;
70148;SDS011;57514;52.164;5.282;2023-07-29T00:56:06;6.63;;;1.63;;
70148;SDS011;57514;52.164;5.282;2023-07-29T00:58:33;4.43;;;1.63;;
70148;SDS011;57514;52.164;5.282;2023-07-29T01:01:00;5.63;;;1.90;;
70148;SDS011;57514;52.164;5.282;2023-07-29T01:03:28;4.22;;;1.35;;
70148;SDS011;57514;52.164;5.282;2023-07-29T01:08:31;4.13;;;1.60;;
70148;SDS011;57514;52.164;5.282;2023-07-29T01:13:57;4.85;;;1.90;;
70148;SDS011;57514;52.164;5.282;2023-07-29T01:16:42;5.15;;;1.35;;
70148;SDS011;57514;52.164;5.282;2023-07-29T01:19:20;4.28;;;1.73;;
70148;SDS011;57514;52.164;5.282;2023-07-29T01:22:11;2.95;;;1.40;;
70148;SDS011;57514;52.164;5.282;2023-07-29T01:24:39;3.55;;;1.40;;
70148;SDS011;57514;52.164;5.282;2023-07-29T01:27:07;5.28;;;1.80;;
70148;SDS011;57514;52.164;5.282;2023-07-29T01:29:33;6.07;;;1.98;;
70148;SDS011;57514;52.164;5.282;2023-07-29T01:32:02;6.47;;;1.63;;
70148;SDS011;57514;52.164;5.282;2023-07-29T01:34:57;7.05;;;1.67;;
70148;SDS011;57514;52.164;5.282;2023-07-29T01:37:30;6.80;;;2.05;;
70148;SDS011;57514;52.164;5.282;2023-07-29T01:40:00;6.55;;;1.70;;
70148;SDS011;57514;52.164;5.282;2023-07-29T01:42:28;7.05;;;2.33;;
70148;SDS011;57514;52.164;5.282;2023-07-29T01:44:56;8.23;;;2.28;;
70148;SDS011;57514;52.164;5.282;2023-07-29T01:47:24;5.55;;;1.98;;
70148;SDS011;57514;52.164;5.282;2023-07-29T01:49:54;6.55;;;1.90;;
70148;SDS011;57514;52.164;5.282;2023-07-29T01:52:20;10.13;;;2.30;;
70148;SDS011;57514;52.164;5.282;2023-07-29T01:54:49;6.55;;;1.95;;
70148;SDS011;57514;52.164;5.282;2023-07-29T01:57:16;8.15;;;2.42;;
70148;SDS011;57514;52.164;5.282;2023-07-29T01:59:43;6.45;;;2.03;;
70148;SDS011;57514;52.164;5.282;2023-07-29T02:02:11;8.48;;;2.20;;
70148;SDS011;57514;52.164;5.282;2023-07-29T02:04:38;8.73;;;1.98;;
70148;SDS011;57514;52.164;5.282;2023-07-29T02:07:06;7.78;;;2.20;;
70148;SDS011;57514;52.164;5.282;2023-07-29T02:09:33;8.02;;;2.20;;
70148;SDS011;57514;52.164;5.282;2023-07-29T02:12:00;8.07;;;3.00;;
70148;SDS011;57514;52.164;5.282;2023-07-29T02:14:36;7.93;;;2.08;;
70148;SDS011;57514;52.164;5.282;2023-07-29T02:17:03;9.82;;;2.60;;
70148;SDS011;57514;52.164;5.282;2023-07-29T02:19:31;10.05;;;2.78;;
70148;SDS011;57514;52.164;5.282;2023-07-29T02:21:58;9.60;;;2.50;;
70148;SDS011;57514;52.164;5.282;2023-07-29T02:24:25;9.88;;;2.80;;
70148;SDS011;57514;52.164;5.282;2023-07-29T02:26:53;11.70;;;3.00;;
70148;SDS011;57514;52.164;5.282;2023-07-29T02:29:20;9.55;;;2.80;;
70148;SDS011;57514;52.164;5.282;2023-07-29T02:31:47;11.60;;;3.78;;
70148;SDS011;57514;52.164;5.282;2023-07-29T02:34:15;11.45;;;3.30;;
70148;SDS011;57514;52.164;5.282;2023-07-29T02:36:42;9.55;;;3.10;;
70148;SDS011;57514;52.164;5.282;2023-07-29T02:39:09;14.07;;;2.95;;
70148;SDS011;57514;52.164;5.282;2023-07-29T02:41:37;12.68;;;3.15;;
70148;SDS011;57514;52.164;5.282;2023-07-29T02:44:04;13.40;;;3.40;;
70148;SDS011;57514;52.164;5.282;2023-07-29T02:46:32;9.40;;;3.15;;
70148;SDS011;57514;52.164;5.282;2023-07-29T02:49:01;10.85;;;3.67;;
70148;SDS011;57514;52.164;5.282;2023-07-29T02:51:29;8.35;;;2.80;;
70148;SDS011;57514;52.164;5.282;2023-07-29T02:53:56;9.77;;;2.88;;
70148;SDS011;57514;52.164;5.282;2023-07-29T02:56:23;7.55;;;2.65;;
70148;SDS011;57514;52.164;5.282;2023-07-29T02:58:51;9.77;;;2.90;;
70148;SDS011;57514;52.164;5.282;2023-07-29T03:01:19;7.13;;;2.70;;
70148;SDS011;57514;52.164;5.282;2023-07-29T03:03:46;7.25;;;2.53;;
70148;SDS011;57514;52.164;5.282;2023-07-29T03:06:14;11.70;;;2.90;;
70148;SDS011;57514;52.164;5.282;2023-07-29T03:08:42;7.97;;;2.80;;
70148;SDS011;57514;52.164;5.282;2023-07-29T03:11:10;8.82;;;3.13;;
70148;SDS011;57514;52.164;5.282;2023-07-29T03:13:38;6.88;;;2.55;;
70148;SDS011;57514;52.164;5.282;2023-07-29T03:18:32;8.38;;;2.38;;
70148;SDS011;57514;52.164;5.282;2023-07-29T03:20:59;6.72;;;2.30;;
70148;SDS011;57514;52.164;5.282;2023-07-29T03:23:27;6.97;;;2.60;;
70148;SDS011;57514;52.164;5.282;2023-07-29T03:25:58;6.20;;;2.35;;
70148;SDS011;57514;52.164;5.282;2023-07-29T03:28:27;7.03;;;2.53;;
70148;SDS011;57514;52.164;5.282;2023-07-29T03:30:55;6.22;;;2.03;;
70148;SDS011;57514;52.164;5.282;2023-07-29T03:33:23;7.10;;;2.50;;
70148;SDS011;57514;52.164;5.282;2023-07-29T03:35:51;9.23;;;2.40;;
70148;SDS011;57514;52.164;5.282;2023-07-29T03:38:18;7.18;;;2.20;;
70148;SDS011;57514;52.164;5.282;2023-07-29T03:40:46;8.05;;;2.47;;
70148;SDS011;57514;52.164;5.282;2023-07-29T03:43:13;8.93;;;2.72;;
70148;SDS011;57514;52.164;5.282;2023-07-29T03:45:41;7.35;;;2.42;;
70148;SDS011;57514;52.164;5.282;2023-07-29T03:48:08;8.43;;;2.30;;
70148;SDS011;57514;52.164;5.282;2023-07-29T03:50:36;4.85;;;1.90;;
70148;SDS011;57514;52.164;5.282;2023-07-29T03:53:04;5.03;;;1.92;;
70148;SDS011;57514;52.164;5.282;2023-07-29T03:55:31;8.05;;;2.38;;
70148;SDS011;57514;52.164;5.282;2023-07-29T03:57:59;6.82;;;1.98;;
70148;SDS011;57514;52.164;5.282;2023-07-29T04:00:27;5.75;;;1.60;;
70148;SDS011;57514;52.164;5.282;2023-07-29T04:02:54;6.68;;;2.00;;
70148;SDS011;57514;52.164;5.282;2023-07-29T04:05:21;4.72;;;1.77;;
70148;SDS011;57514;52.164;5.282;2023-07-29T04:07:49;5.70;;;2.00;;
70148;SDS011;57514;52.164;5.282;2023-07-29T04:10:16;5.57;;;2.20;;
70148;SDS011;57514;52.164;5.282;2023-07-29T04:12:43;7.32;;;1.80;;
70148;SDS011;57514;52.164;5.282;2023-07-29T04:15:10;6.25;;;2.38;;
70148;SDS011;57514;52.164;5.282;2023-07-29T04:17:37;7.55;;;2.00;;
70148;SDS011;57514;52.164;5.282;2023-07-29T04:20:04;6.13;;;2.03;;
70148;SDS011;57514;52.164;5.282;2023-07-29T04:22:33;6.22;;;2.35;;
70148;SDS011;57514;52.164;5.282;2023-07-29T04:25:00;7.15;;;2.42;;
70148;SDS011;57514;52.164;5.282;2023-07-29T04:27:27;6.18;;;2.00;;
70148;SDS011;57514;52.164;5.282;2023-07-29T04:29:55;7.97;;;2.20;;
70148;SDS011;57514;52.164;5.282;2023-07-29T04:32:22;5.30;;;2.08;;
70148;SDS011;57514;52.164;5.282;2023-07-29T04:34:49;6.90;;;2.40;;
70148;SDS011;57514;52.164;5.282;2023-07-29T04:37:16;6.78;;;1.95;;
70148;SDS011;57514;52.164;5.282;2023-07-29T04:39:44;7.03;;;1.92;;
70148;SDS011;57514;52.164;5.282;2023-07-29T04:42:11;5.75;;;2.20;;
70148;SDS011;57514;52.164;5.282;2023-07-29T04:44:39;7.32;;;2.15;;
70148;SDS011;57514;52.164;5.282;2023-07-29T04:47:08;8.02;;;2.15;;
70148;SDS011;57514;52.164;5.282;2023-07-29T04:49:35;5.70;;;2.03;;
70148;SDS011;57514;52.164;5.282;2023-07-29T04:52:03;6.88;;;2.53;;
70148;SDS011;57514;52.164;5.282;2023-07-29T04:54:30;5.90;;;1.65;;
70148;SDS011;57514;52.164;5.282;2023-07-29T04:56:57;7.80;;;2.42;;
70148;SDS011;57514;52.164;5.282;2023-07-29T04:59:26;9.45;;;2.40;;
70148;SDS011;57514;52.164;5.282;2023-07-29T05:01:53;7.63;;;2.25;;
70148;SDS011;57514;52.164;5.282;2023-07-29T05:04:21;8.27;;;2.40;;
70148;SDS011;57514;52.164;5.282;2023-07-29T05:06:49;9.25;;;2.33;;
70148;SDS011;57514;52.164;5.282;2023-07-29T05:09:17;7.30;;;2.25;;
70148;SDS011;57514;52.164;5.282;2023-07-29T05:11:47;9.13;;;2.30;;
70148;SDS011;57514;52.164;5.282;2023-07-29T05:14:16;6.60;;;2.45;;
70148;SDS011;57514;52.164;5.282;2023-07-29T05:16:44;7.53;;;2.30;;
70148;SDS011;57514;52.164;5.282;2023-07-29T05:19:11;6.13;;;2.20;;
70148;SDS011;57514;52.164;5.282;2023-07-29T05:21:39;9.45;;;2.38;;
70148;SDS011;57514;52.164;5.282;2023-07-29T05:24:06;6.82;;;2.45;;
70148;SDS011;57514;52.164;5.282;2023-07-29T05:26:34;6.72;;;2.35;;
70148;SDS011;57514;52.164;5.282;2023-07-29T05:29:01;8.18;;;2.80;;
70148;SDS011;57514;52.164;5.282;2023-07-29T05:31:30;9.38;;;2.92;;
70148;SDS011;57514;52.164;5.282;2023-07-29T05:33:58;7.38;;;3.00;;
70148;SDS011;57514;52.164;5.282;2023-07-29T05:36:26;10.05;;;4.00;;
70148;SDS011;57514;52.164;5.282;2023-07-29T05:38:53;8.85;;;2.70;;
70148;SDS011;57514;52.164;5.282;2023-07-29T05:41:20;7.28;;;2.70;;
70148;SDS011;57514;52.164;5.282;2023-07-29T05:43:47;8.82;;;2.65;;
70148;SDS011;57514;52.164;5.282;2023-07-29T05:46:15;8.07;;;2.83;;
70148;SDS011;57514;52.164;5.282;2023-07-29T05:48:42;8.35;;;2.83;;
70148;SDS011;57514;52.164;5.282;2023-07-29T05:51:09;7.97;;;2.63;;
70148;SDS011;57514;52.164;5.282;2023-07-29T05:53:37;9.25;;;3.22;;
70148;SDS011;57514;52.164;5.282;2023-07-29T05:56:04;9.95;;;3.33;;
70148;SDS011;57514;52.164;5.282;2023-07-29T05:58:31;10.13;;;3.67;;
70148;SDS011;57514;52.164;5.282;2023-07-29T06:00:59;8.10;;;3.00;;
70148;SDS011;57514;52.164;5.282;2023-07-29T06:03:26;9.90;;;3.50;;
70148;SDS011;57514;52.164;5.282;2023-07-29T06:05:54;11.15;;;3.22;;
70148;SDS011;57514;52.164;5.282;2023-07-29T06:08:21;11.02;;;3.33;;
70148;SDS011;57514;52.164;5.282;2023-07-29T06:10:49;9.27;;;3.30;;
70148;SDS011;57514;52.164;5.282;2023-07-29T06:13:16;9.15;;;3.13;;
70148;SDS011;57514;52.164;5.282;2023-07-29T06:15:43;10.57;;;3.20;;
70148;SDS011;57514;52.164;5.282;2023-07-29T06:18:10;9.95;;;2.90;;
70148;SDS011;57514;52.164;5.282;2023-07-29T06:20:37;11.35;;;3.22;;
70148;SDS011;57514;52.164;5.282;2023-07-29T06:23:05;10.10;;;3.17;;
70148;SDS011;57514;52.164;5.282;2023-07-29T06:25:33;7.32;;;2.60;;
70148;SDS011;57514;52.164;5.282;2023-07-29T06:28:00;10.38;;;2.95;;
70148;SDS011;57514;52.164;5.282;2023-07-29T06:30:27;8.52;;;3.22;;
70148;SDS011;57514;52.164;5.282;2023-07-29T06:32:54;10.93;;;3.20;;
70148;SDS011;57514;52.164;5.282;2023-07-29T06:35:21;9.13;;;3.10;;
70148;SDS011;57514;52.164;5.282;2023-07-29T06:37:49;9.55;;;3.10;;
70148;SDS011;57514;52.164;5.282;2023-07-29T06:40:16;9.80;;;3.10;;
70148;SDS011;57514;52.164;5.282;2023-07-29T06:42:44;12.07;;;3.20;;
70148;SDS011;57514;52.164;5.282;2023-07-29T06:45:11;10.00;;;3.00;;
70148;SDS011;57514;52.164;5.282;2023-07-29T06:47:38;8.40;;;3.15;;
70148;SDS011;57514;52.164;5.282;2023-07-29T06:50:06;8.98;;;3.05;;
70148;SDS011;57514;52.164;5.282;2023-07-29T06:52:33;10.48;;;3.58;;
70148;SDS011;57514;52.164;5.282;2023-07-29T06:55:00;8.85;;;3.95;;
70148;SDS011;57514;52.164;5.282;2023-07-29T06:57:28;8.82;;;3.58;;
70148;SDS011;57514;52.164;5.282;2023-07-29T06:59:55;11.77;;;3.80;;
70148;SDS011;57514;52.164;5.282;2023-07-29T07:02:22;9.77;;;3.53;;
70148;SDS011;57514;52.164;5.282;2023-07-29T07:04:50;12.25;;;3.55;;
70148;SDS011;57514;52.164;5.282;2023-07-29T07:07:17;8.07;;;3.45;;
70148;SDS011;57514;52.164;5.282;2023-07-29T07:09:44;8.93;;;3.78;;
70148;SDS011;57514;52.164;5.282;2023-07-29T07:12:11;9.48;;;4.35;;
70148;SDS011;57514;52.164;5.282;2023-07-29T07:14:39;9.80;;;3.85;;
70148;SDS011;57514;52.164;5.282;2023-07-29T07:17:05;8.48;;;3.83;;
70148;SDS011;57514;52.164;5.282;2023-07-29T07:19:36;8.07;;;3.80;;
70148;SDS011;57514;52.164;5.282;2023-07-29T07:22:03;9.43;;;4.00;;
70148;SDS011;57514;52.164;5.282;2023-07-29T07:24:30;8.80;;;3.60;;
70148;SDS011;57514;52.164;5.282;2023-07-29T07:26:58;12.40;;;4.00;;
70148;SDS011;57514;52.164;5.282;2023-07-29T07:29:25;8.18;;;3.75;;
70148;SDS011;57514;52.164;5.282;2023-07-29T07:31:52;10.25;;;3.90;;
70148;SDS011;57514;52.164;5.282;2023-07-29T07:34:20;11.88;;;4.68;;
70148;SDS011;57514;52.164;5.282;2023-07-29T07:36:48;13.82;;;4.93;;
70148;SDS011;57514;52.164;5.282;2023-07-29T07:39:15;13.07;;;4.57;;
70148;SDS011;57514;52.164;5.282;2023-07-29T07:41:43;10.85;;;5.10;;
70148;SDS011;57514;52.164;5.282;2023-07-29T07:44:10;11.60;;;4.80;;
70148;SDS011;57514;52.164;5.282;2023-07-29T07:46:41;10.65;;;4.95;;
70148;SDS011;57514;52.164;5.282;2023-07-29T07:49:08;10.35;;;4.43;;
70148;SDS011;57514;52.164;5.282;2023-07-29T07:51:36;11.05;;;4.55;;
70148;SDS011;57514;52.164;5.282;2023-07-29T07:54:03;9.30;;;4.60;;
70148;SDS011;57514;52.164;5.282;2023-07-29T07:56:30;8.50;;;4.00;;
70148;SDS011;57514;52.164;5.282;2023-07-29T07:58:57;9.20;;;4.32;;
70148;SDS011;57514;52.164;5.282;2023-07-29T08:01:24;8.77;;;4.13;;
70148;SDS011;57514;52.164;5.282;2023-07-29T08:03:52;11.15;;;4.65;;
70148;SDS011;57514;52.164;5.282;2023-07-29T08:06:19;14.20;;;4.90;;
70148;SDS011;57514;52.164;5.282;2023-07-29T08:08:47;11.40;;;4.82;;
70148;SDS011;57514;52.164;5.282;2023-07-29T08:11:14;10.77;;;4.63;;
70148;SDS011;57514;52.164;5.282;2023-07-29T08:13:42;8.15;;;4.10;;
70148;SDS011;57514;52.164;5.282;2023-07-29T08:16:12;9.98;;;4.47;;
70148;SDS011;57514;52.164;5.282;2023-07-29T08:18:39;9.02;;;4.70;;
70148;SDS011;57514;52.164;5.282;2023-07-29T08:21:06;11.25;;;4.50;;
70148;SDS011;57514;52.164;5.282;2023-07-29T08:23:35;7.93;;;4.10;;
70148;SDS011;57514;52.164;5.282;2023-07-29T08:26:03;8.45;;;3.80;;
70148;SDS011;57514;52.164;5.282;2023-07-29T08:28:34;8.23;;;3.80;;
70148;SDS011;57514;52.164;5.282;2023-07-29T08:31:03;8.30;;;3.60;;
70148;SDS011;57514;52.164;5.282;2023-07-29T08:33:31;7.78;;;3.33;;
70148;SDS011;57514;52.164;5.282;2023-07-29T08:36:02;6.82;;;2.80;;
70148;SDS011;57514;52.164;5.282;2023-07-29T08:38:29;7.57;;;2.85;;
70148;SDS011;57514;52.164;5.282;2023-07-29T08:40:58;6.35;;;2.85;;
70148;SDS011;57514;52.164;5.282;2023-07-29T08:43:41;8.05;;;3.20;;
70148;SDS011;57514;52.164;5.282;2023-07-29T08:46:14;6.00;;;3.28;;
70148;SDS011;57514;52.164;5.282;2023-07-29T08:48:43;6.28;;;3.03;;
70148;SDS011;57514;52.164;5.282;2023-07-29T08:51:11;6.10;;;3.15;;
70148;SDS011;57514;52.164;5.282;2023-07-29T08:53:39;7.22;;;3.40;;
70148;SDS011;57514;52.164;5.282;2023-07-29T08:56:06;7.20;;;3.42;;
70148;SDS011;57514;52.164;5.282;2023-07-29T08:58:33;6.45;;;3.53;;
70148;SDS011;57514;52.164;5.282;2023-07-29T09:01:01;8.30;;;3.50;;
70148;SDS011;57514;52.164;5.282;2023-07-29T09:03:29;7.82;;;3.15;;
70148;SDS011;57514;52.164;5.282;2023-07-29T09:05:56;7.32;;;3.67;;
70148;SDS011;57514;52.164;5.282;2023-07-29T09:08:27;8.60;;;4.25;;
70148;SDS011;57514;52.164;5.282;2023-07-29T09:10:54;6.85;;;3.75;;
70148;SDS011;57514;52.164;5.282;2023-07-29T09:13:22;9.32;;;3.88;;
70148;SDS011;57514;52.164;5.282;2023-07-29T09:15:49;8.10;;;4.05;;
70148;SDS011;57514;52.164;5.282;2023-07-29T09:18:20;7.57;;;3.30;;
70148;SDS011;57514;52.164;5.282;2023-07-29T09:20:49;10.57;;;3.40;;
70148;SDS011;57514;52.164;5.282;2023-07-29T09:23:16;8.43;;;3.72;;
70148;SDS011;57514;52.164;5.282;2023-07-29T09:25:45;6.18;;;3.20;;
70148;SDS011;57514;52.164;5.282;2023-07-29T09:30:42;5.35;;;2.70;;
70148;SDS011;57514;52.164;5.282;2023-07-29T09:33:11;6.55;;;3.47;;
70148;SDS011;57514;52.164;5.282;2023-07-29T09:35:39;5.50;;;2.83;;
70148;SDS011;57514;52.164;5.282;2023-07-29T09:38:06;6.57;;;3.03;;
70148;SDS011;57514;52.164;5.282;2023-07-29T09:40:34;5.55;;;2.72;;
70148;SDS011;57514;52.164;5.282;2023-07-29T09:43:06;7.63;;;3.28;;
70148;SDS011;57514;52.164;5.282;2023-07-29T09:45:37;7.38;;;3.15;;
70148;SDS011;57514;52.164;5.282;2023-07-29T09:48:04;6.57;;;3.13;;
70148;SDS011;57514;52.164;5.282;2023-07-29T09:50:36;8.57;;;3.35;;
70148;SDS011;57514;52.164;5.282;2023-07-29T09:53:03;6.55;;;3.30;;
70148;SDS011;57514;52.164;5.282;2023-07-29T09:58:00;7.38;;;3.30;;
70148;SDS011;57514;52.164;5.282;2023-07-29T10:00:30;6.68;;;3.55;;
70148;SDS011;57514;52.164;5.282;2023-07-29T10:02:58;5.93;;;2.83;;
70148;SDS011;57514;52.164;5.282;2023-07-29T10:05:26;6.53;;;2.72;;
70148;SDS011;57514;52.164;5.282;2023-07-29T10:07:54;6.43;;;3.10;;
70148;SDS011;57514;52.164;5.282;2023-07-29T10:10:22;8.65;;;3.30;;
70148;SDS011;57514;52.164;5.282;2023-07-29T10:12:50;8.35;;;3.28;;
70148;SDS011;57514;52.164;5.282;2023-07-29T10:15:17;5.88;;;2.88;;
70148;SDS011;57514;52.164;5.282;2023-07-29T10:17:44;6.95;;;2.65;;
70148;SDS011;57514;52.164;5.282;2023-07-29T10:20:15;6.20;;;2.75;;
70148;SDS011;57514;52.164;5.282;2023-07-29T10:22:43;6.93;;;2.80;;
70148;SDS011;57514;52.164;5.282;2023-07-29T10:25:18;6.95;;;3.13;;
70148;SDS011;57514;52.164;5.282;2023-07-29T10:28:07;7.03;;;3.20;;
70148;SDS011;57514;52.164;5.282;2023-07-29T10:30:34;7.50;;;3.50;;
70148;SDS011;57514;52.164;5.282;2023-07-29T10:33:03;5.45;;;2.85;;
70148;SDS011;57514;52.164;5.282;2023-07-29T10:35:34;6.22;;;2.75;;
70148;SDS011;57514;52.164;5.282;2023-07-29T10:38:03;5.20;;;2.58;;
70148;SDS011;57514;52.164;5.282;2023-07-29T10:40:47;6.45;;;2.80;;
70148;SDS011;57514;52.164;5.282;2023-07-29T10:43:23;8.45;;;3.20;;
70148;SDS011;57514;52.164;5.282;2023-07-29T10:45:52;6.55;;;3.35;;
70148;SDS011;57514;52.164;5.282;2023-07-29T10:54:11;8.38;;;3.80;;
70148;SDS011;57514;52.164;5.282;2023-07-29T10:56:41;9.18;;;3.60;;
70148;SDS011;57514;52.164;5.282;2023-07-29T11:01:50;8.68;;;3.97;;
70148;SDS011;57514;52.164;5.282;2023-07-29T11:09:39;9.02;;;4.25;;
70148;SDS011;57514;52.164;5.282;2023-07-29T11:15:06;7.88;;;2.90;;
70148;SDS011;57514;52.164;5.282;2023-07-29T11:17:49;5.60;;;2.50;;
70148;SDS011;57514;52.164;5.282;2023-07-29T11:20:18;6.78;;;2.65;;
70148;SDS011;57514;52.164;5.282;2023-07-29T11:22:47;3.85;;;2.10;;
70148;SDS011;57514;52.164;5.282;2023-07-29T11:25:14;4.50;;;2.10;;
70148;SDS011;57514;52.164;5.282;2023-07-29T11:27:43;7.07;;;1.90;;
70148;SDS011;57514;52.164;5.282;2023-07-29T11:30:13;4.25;;;1.90;;
70148;SDS011;57514;52.164;5.282;2023-07-29T11:32:42;3.35;;;1.80;;
70148;SDS011;57514;52.164;5.282;2023-07-29T11:35:14;3.90;;;1.63;;
70148;SDS011;57514;52.164;5.282;2023-07-29T11:37:45;3.90;;;1.70;;
70148;SDS011;57514;52.164;5.282;2023-07-29T11:40:18;3.70;;;1.55;;
70148;SDS011;57514;52.164;5.282;2023-07-29T11:42:46;2.80;;;1.40;;
70148;SDS011;57514;52.164;5.282;2023-07-29T11:45:14;1.85;;;1.20;;
70148;SDS011;57514;52.164;5.282;2023-07-29T11:47:43;2.30;;;1.23;;
70148;SDS011;57514;52.164;5.282;2023-07-29T11:50:11;2.58;;;1.60;;
70148;SDS011;57514;52.164;5.282;2023-07-29T11:52:41;3.20;;;1.38;;
70148;SDS011;57514;52.164;5.282;2023-07-29T11:55:09;2.88;;;1.42;;
70148;SDS011;57514;52.164;5.282;2023-07-29T11:57:37;2.97;;;1.50;;
70148;SDS011;57514;52.164;5.282;2023-07-29T12:00:06;2.10;;;1.30;;
70148;SDS011;57514;52.164;5.282;2023-07-29T12:02:37;2.10;;;1.42;;
70148;SDS011;57514;52.164;5.282;2023-07-29T12:05:06;3.20;;;1.77;;
70148;SDS011;57514;52.164;5.282;2023-07-29T12:07:34;4.07;;;1.90;;
70148;SDS011;57514;52.164;5.282;2023-07-29T12:10:02;3.03;;;1.77;;
70148;SDS011;57514;52.164;5.282;2023-07-29T12:12:30;4.00;;;1.80;;
70148;SDS011;57514;52.164;5.282;2023-07-29T12:14:57;4.68;;;1.80;;
70148;SDS011;57514;52.164;5.282;2023-07-29T12:17:24;3.25;;;1.60;;
70148;SDS011;57514;52.164;5.282;2023-07-29T12:19:53;2.58;;;1.52;;
70148;SDS011;57514;52.164;5.282;2023-07-29T12:22:21;3.85;;;1.70;;
70148;SDS011;57514;52.164;5.282;2023-07-29T12:24:50;2.60;;;1.60;;
70148;SDS011;57514;52.164;5.282;2023-07-29T12:27:18;3.13;;;1.58;;
70148;SDS011;57514;52.164;5.282;2023-07-29T12:29:48;4.68;;;1.80;;
70148;SDS011;57514;52.164;5.282;2023-07-29T12:32:19;4.35;;;1.80;;
70148;SDS011;57514;52.164;5.282;2023-07-29T12:34:46;4.68;;;1.73;;
70148;SDS011;57514;52.164;5.282;2023-07-29T12:37:13;3.35;;;1.75;;
70148;SDS011;57514;52.164;5.282;2023-07-29T12:39:41;4.00;;;1.63;;
70148;SDS011;57514;52.164;5.282;2023-07-29T12:42:08;5.65;;;2.13;;
70148;SDS011;57514;52.164;5.282;2023-07-29T12:44:36;4.07;;;1.90;;
70148;SDS011;57514;52.164;5.282;2023-07-29T12:47:05;4.35;;;2.20;;
70148;SDS011;57514;52.164;5.282;2023-07-29T12:49:32;4.78;;;1.95;;
70148;SDS011;57514;52.164;5.282;2023-07-29T12:51:59;3.13;;;1.73;;
70148;SDS011;57514;52.164;5.282;2023-07-29T12:54:27;3.75;;;1.88;;
70148;SDS011;57514;52.164;5.282;2023-07-29T12:56:54;5.20;;;1.80;;
70148;SDS011;57514;52.164;5.282;2023-07-29T12:59:21;5.07;;;1.80;;
70148;SDS011;57514;52.164;5.282;2023-07-29T13:01:48;4.18;;;1.92;;
70148;SDS011;57514;52.164;5.282;2023-07-29T13:04:16;3.30;;;1.95;;
70148;SDS011;57514;52.164;5.282;2023-07-29T13:06:43;2.63;;;1.80;;
70148;SDS011;57514;52.164;5.282;2023-07-29T13:09:10;3.85;;;1.75;;
70148;SDS011;57514;52.164;5.282;2023-07-29T13:11:37;4.13;;;1.83;;
70148;SDS011;57514;52.164;5.282;2023-07-29T13:14:04;4.93;;;2.03;;
70148;SDS011;57514;52.164;5.282;2023-07-29T13:16:32;4.97;;;2.22;;
70148;SDS011;57514;52.164;5.282;2023-07-29T13:18:59;4.50;;;1.90;;
70148;SDS011;57514;52.164;5.282;2023-07-29T13:21:26;3.22;;;1.67;;
70148;SDS011;57514;52.164;5.282;2023-07-29T13:23:54;4.95;;;2.00;;
70148;SDS011;57514;52.164;5.282;2023-07-29T13:26:21;3.72;;;1.83;;
70148;SDS011;57514;52.164;5.282;2023-07-29T13:28:48;2.92;;;1.70;;
70148;SDS011;57514;52.164;5.282;2023-07-29T13:31:16;4.65;;;2.13;;
70148;SDS011;57514;52.164;5.282;2023-07-29T13:33:43;4.22;;;2.17;;
70148;SDS011;57514;52.164;5.282;2023-07-29T13:36:10;4.72;;;2.58;;
70148;SDS011;57514;52.164;5.282;2023-07-29T13:38:37;4.30;;;1.85;;
70148;SDS011;57514;52.164;5.282;2023-07-29T13:41:04;3.65;;;2.28;;
70148;SDS011;57514;52.164;5.282;2023-07-29T13:43:31;5.07;;;2.25;;
70148;SDS011;57514;52.164;5.282;2023-07-29T13:45:59;3.45;;;2.00;;
70148;SDS011;57514;52.164;5.282;2023-07-29T13:48:26;3.55;;;1.98;;
70148;SDS011;57514;52.164;5.282;2023-07-29T13:50:54;3.15;;;1.80;;
70148;SDS011;57514;52.164;5.282;2023-07-29T13:53:21;3.95;;;2.10;;
70148;SDS011;57514;52.164;5.282;2023-07-29T13:55:48;5.43;;;2.58;;
70148;SDS011;57514;52.164;5.282;2023-07-29T13:58:16;4.97;;;2.40;;
70148;SDS011;57514;52.164;5.282;2023-07-29T14:00:42;5.85;;;2.17;;
70148;SDS011;57514;52.164;5.282;2023-07-29T14:03:10;5.32;;;2.50;;
70148;SDS011;57514;52.164;5.282;2023-07-29T14:05:37;4.32;;;2.20;;
70148;SDS011;57514;52.164;5.282;2023-07-29T14:08:04;4.78;;;2.38;;
70148;SDS011;57514;52.164;5.282;2023-07-29T14:10:32;6.30;;;2.30;;
70148;SDS011;57514;52.164;5.282;2023-07-29T14:12:59;4.53;;;2.28;;
70148;SDS011;57514;52.164;5.282;2023-07-29T14:15:26;4.57;;;2.10;;
70148;SDS011;57514;52.164;5.282;2023-07-29T14:17:54;6.00;;;2.28;;
70148;SDS011;57514;52.164;5.282;2023-07-29T14:20:22;3.80;;;1.88;;
70148;SDS011;57514;52.164;5.282;2023-07-29T14:22:49;5.50;;;1.95;;
70148;SDS011;57514;52.164;5.282;2023-07-29T14:25:16;3.90;;;1.70;;
70148;SDS011;57514;52.164;5.282;2023-07-29T14:27:44;3.78;;;1.70;;
70148;SDS011;57514;52.164;5.282;2023-07-29T14:30:12;2.72;;;1.52;;
70148;SDS011;57514;52.164;5.282;2023-07-29T14:32:38;3.75;;;1.90;;
70148;SDS011;57514;52.164;5.282;2023-07-29T14:35:06;3.60;;;1.75;;
70148;SDS011;57514;52.164;5.282;2023-07-29T14:37:34;4.70;;;1.60;;
70148;SDS011;57514;52.164;5.282;2023-07-29T14:40:01;5.45;;;1.85;;
70148;SDS011;57514;52.164;5.282;2023-07-29T14:42:29;4.20;;;1.60;;
70148;SDS011;57514;52.164;5.282;2023-07-29T14:44:59;4.25;;;1.60;;
70148;SDS011;57514;52.164;5.282;2023-07-29T14:47:27;2.40;;;1.30;;
70148;SDS011;57514;52.164;5.282;2023-07-29T14:49:54;3.83;;;1.85;;
70148;SDS011;57514;52.164;5.282;2023-07-29T14:52:21;2.92;;;1.67;;
70148;SDS011;57514;52.164;5.282;2023-07-29T14:54:48;4.13;;;1.50;;
70148;SDS011;57514;52.164;5.282;2023-07-29T14:57:16;4.80;;;1.50;;
70148;SDS011;57514;52.164;5.282;2023-07-29T14:59:43;6.13;;;1.63;;
70148;SDS011;57514;52.164;5.282;2023-07-29T15:02:10;3.22;;;1.65;;
70148;SDS011;57514;52.164;5.282;2023-07-29T15:04:38;5.10;;;1.85;;
70148;SDS011;57514;52.164;5.282;2023-07-29T15:07:05;6.65;;;2.22;;
70148;SDS011;57514;52.164;5.282;2023-07-29T15:09:32;5.70;;;1.98;;
70148;SDS011;57514;52.164;5.282;2023-07-29T15:12:00;4.10;;;1.30;;
70148;SDS011;57514;52.164;5.282;2023-07-29T15:14:27;3.25;;;1.40;;
70148;SDS011;57514;52.164;5.282;2023-07-29T15:16:54;3.45;;;1.50;;
70148;SDS011;57514;52.164;5.282;2023-07-29T15:19:21;2.58;;;1.30;;
70148;SDS011;57514;52.164;5.282;2023-07-29T15:21:49;2.78;;;1.10;;